Time,TemperatureF,DewpointF,PressureIn,WindDirection,WindDirectionDegrees,WindSpeedMPH,WindSpeedGustMPH,Humidity,HourlyPrecipIn,Conditions,Clouds,dailyrainin,SoftwareType,DateUTC
2013-04-09 00:00:00,35.4,34.4,29.00,NW,315,2.3,2.3,96,0.00,RA,,0.00,WeatherDisplay:10.37,2013-04-09 05:00:00,
2013-04-09 00:06:00,35.4,34.4,29.00,NW,315,2.3,2.3,96,0.00,RA,,0.00,WeatherDisplay:10.37,2013-04-09 05:06:00,
2013-04-09 00:10:00,35.4,34.4,28.99,North,0,3.5,3.5,96,0.00,CLR,,0.00,WeatherDisplay:10.37,2013-04-09 05:10:00,
2013-04-09 00:15:00,35.8,35.0,29.00,North,0,3.5,3.5,97,0.00,CLR,,0.00,WeatherDisplay:10.37,2013-04-09 05:15:00,
2013-04-09 00:21:00,36.1,35.4,29.00,North,0,4.6,4.6,97,0.00,CLR,,0.00,WeatherDisplay:10.37,2013-04-09 05:21:00,
2013-04-09 00:26:00,36.7,35.9,29.01,NW,315,3.5,3.5,97,0.00,CLR,,0.00,WeatherDisplay:10.37,2013-04-09 05:26:00,
2013-04-09 00:32:00,36.5,35.7,29.01,North,0,2.3,2.3,97,0.00,CLR,,0.00,WeatherDisplay:10.37,2013-04-09 05:32:00,
2013-04-09 00:37:00,36.0,35.2,29.01,North,0,2.3,2.3,97,0.00,CLR,,0.00,WeatherDisplay:10.37,2013-04-09 05:37:00,
2013-04-09 00:42:00,36.0,35.2,29.01,NW,315,2.3,2.3,97,0.00,CLR,,0.00,WeatherDisplay:10.37,2013-04-09 05:42:00,
2013-04-09 00:47:00,35.8,35.0,29.01,North,0,1.1,1.1,97,0.00,CLR,,0.00,WeatherDisplay:10.37,2013-04-09 05:47:00,
2013-04-09 00:52:00,35.4,34.7,29.00,North,0,2.3,2.3,97,0.00,CLR,,0.00,WeatherDisplay:10.37,2013-04-09 05:52:00,
2013-04-09 00:57:00,35.4,34.7,29.00,North,0,2.3,2.3,97,0.00,CLR,,0.00,WeatherDisplay:10.37,2013-04-09 05:57:00,
2013-04-09 01:02:00,35.2,34.2,29.00,NW,315,1.1,0.0,96,0.00,CLR,,0.00,WeatherDisplay:10.37,2013-04-09 06:02:00,
2013-04-09 01:07:00,35.2,34.2,29.00,NW,315,1.1,0.0,96,0.00,CLR,,0.00,WeatherDisplay:10.37,2013-04-09 06:07:00,
2013-04-09 01:12:00,35.2,34.5,29.01,North,0,1.1,1.1,97,0.00,CLR,,0.00,WeatherDisplay:10.37,2013-04-09 06:12:00,
2013-04-09 01:17:00,35.1,34.3,29.01,South,180,1.1,0.0,97,0.00,CLR,,0.00,WeatherDisplay:10.37,2013-04-09 06:17:00,
2013-04-09 01:23:00,35.4,34.7,29.00,North,0,3.5,3.5,97,0.00,CLR,,0.00,WeatherDisplay:10.37,2013-04-09 06:23:00,
2013-04-09 01:28:00,35.2,34.5,29.00,North,0,1.6,1.6,97,0.00,CLR,,0.00,WeatherDisplay:10.37,2013-04-09 06:28:00,
2013-04-09 01:33:00,35.4,34.7,29.00,North,0,2.3,2.3,97,0.00,CLR,,0.00,WeatherDisplay:10.37,2013-04-09 06:33:00,
2013-04-09 01:38:00,35.2,34.5,29.00,North,0,2.2,2.2,97,0.00,CLR,,0.00,WeatherDisplay:10.37,2013-04-09 06:38:00,
2013-04-09 01:43:00,35.2,34.5,29.00,North,0,2.3,0.0,97,0.00,CLR,,0.00,WeatherDisplay:10.37,2013-04-09 06:43:00,
2013-04-09 01:49:00,35.1,34.3,29.00,NW,315,1.1,1.1,97,0.00,CLR,,0.00,WeatherDisplay:10.37,2013-04-09 06:49:00,
2013-04-09 01:54:00,35.2,34.7,29.00,North,0,3.5,3.5,98,0.00,CLR,,0.00,WeatherDisplay:10.37,2013-04-09 06:54:00,
2013-04-09 01:59:00,35.4,34.9,28.99,North,0,3.5,3.5,98,0.00,CLR,,0.00,WeatherDisplay:10.37,2013-04-09 06:59:00,
2013-04-09 02:04:00,35.4,34.9,28.99,North,0,3.5,3.5,98,0.00,CLR,,0.00,WeatherDisplay:10.37,2013-04-09 07:04:00,
2013-04-09 02:09:00,35.2,34.7,28.98,North,0,4.6,4.6,98,0.00,CLR,,0.00,WeatherDisplay:10.37,2013-04-09 07:09:00,
2013-04-09 02:14:00,35.2,34.7,28.97,North,0,3.5,3.5,98,0.00,CLR,,0.00,WeatherDisplay:10.37,2013-04-09 07:14:00,
2013-04-09 02:20:00,35.1,34.6,28.96,North,0,3.0,4.0,98,0.00,CLR,,0.00,WeatherDisplay:10.37,2013-04-09 07:20:00,
2013-04-09 02:25:00,34.9,34.4,28.96,North,0,3.5,3.5,98,0.00,CLR,,0.00,WeatherDisplay:10.37,2013-04-09 07:25:00,
2013-04-09 02:30:00,35.1,34.6,28.96,NNW,347,2.0,5.0,98,0.00,CLR,,0.00,WeatherDisplay:10.37,2013-04-09 07:30:00,
2013-04-09 02:35:00,34.9,34.4,28.96,North,0,3.5,3.5,98,0.00,CLR,,0.00,WeatherDisplay:10.37,2013-04-09 07:35:00,
2013-04-09 02:40:00,35.1,34.8,28.96,North,0,2.3,2.3,99,0.00,CLR,,0.00,WeatherDisplay:10.37,2013-04-09 07:40:00,
2013-04-09 02:45:00,34.9,34.4,28.95,North,0,3.5,3.5,98,0.00,CLR,,0.00,WeatherDisplay:10.37,2013-04-09 07:45:00,
2013-04-09 02:50:00,34.9,34.6,28.96,North,0,2.3,2.3,99,0.00,CLR,,0.00,WeatherDisplay:10.37,2013-04-09 07:50:00,
2013-04-09 02:55:00,35.1,34.8,28.96,NE,45,4.5,4.5,99,0.00,CLR,,0.00,WeatherDisplay:10.37,2013-04-09 07:55:00,
2013-04-09 03:00:00,35.2,35.0,28.96,NW,315,2.3,2.3,99,0.00,CLR,,0.00,WeatherDisplay:10.37,2013-04-09 08:00:00,
2013-04-09 03:05:00,35.2,35.0,28.96,NW,315,1.6,1.6,99,0.00,CLR,,0.00,WeatherDisplay:10.37,2013-04-09 08:05:00,
2013-04-09 03:10:00,35.2,35.0,28.96,NW,315,1.1,0.0,99,0.00,CLR,,0.00,WeatherDisplay:10.37,2013-04-09 08:10:00,
2013-04-09 03:15:00,35.2,35.0,28.96,NW,315,2.3,2.3,99,0.00,CLR,,0.00,WeatherDisplay:10.37,2013-04-09 08:15:00,
2013-04-09 03:20:00,35.2,35.0,28.97,NW,315,1.1,1.1,99,0.00,CLR,,0.00,WeatherDisplay:10.37,2013-04-09 08:20:00,
2013-04-09 03:25:00,35.1,34.8,28.95,North,0,3.5,3.5,99,0.00,CLR,,0.00,WeatherDisplay:10.37,2013-04-09 08:25:00,
2013-04-09 03:30:00,35.1,34.8,28.95,NNW,338,3.5,3.5,99,0.00,CLR,,0.00,WeatherDisplay:10.37,2013-04-09 08:30:00,
2013-04-09 03:35:00,35.1,34.8,28.96,North,0,2.3,2.3,99,0.00,CLR,,0.00,WeatherDisplay:10.37,2013-04-09 08:35:00,
2013-04-09 03:40:00,35.2,35.0,28.97,North,0,3.5,3.5,99,0.00,CLR,,0.00,WeatherDisplay:10.37,2013-04-09 08:40:00,
2013-04-09 03:45:00,35.2,35.0,28.97,North,0,1.1,1.1,99,0.00,CLR,,0.00,WeatherDisplay:10.37,2013-04-09 08:45:00,
2013-04-09 03:50:00,35.1,34.8,28.98,NW,315,1.1,1.1,99,0.00,CLR,,0.00,WeatherDisplay:10.37,2013-04-09 08:50:00,
2013-04-09 03:55:00,34.9,34.6,28.99,NW,315,1.1,1.1,99,0.00,CLR,,0.00,WeatherDisplay:10.37,2013-04-09 08:55:00,
2013-04-09 04:00:00,34.9,34.6,29.00,NE,45,1.1,0.0,99,0.00,CLR,,0.00,WeatherDisplay:10.37,2013-04-09 09:00:00,
2013-04-09 04:05:00,34.9,34.6,29.01,NE,45,1.1,0.0,99,0.00,CLR,,0.00,WeatherDisplay:10.37,2013-04-09 09:05:00,
2013-04-09 04:10:00,35.2,35.0,29.01,West,270,0.0,0.0,99,0.00,CLR,,0.00,WeatherDisplay:10.37,2013-04-09 09:10:00,
2013-04-09 04:15:00,35.4,35.2,29.02,SW,225,0.0,0.0,99,0.00,CLR,,0.00,WeatherDisplay:10.37,2013-04-09 09:15:00,
2013-04-09 04:21:00,35.4,35.2,29.02,NW,315,1.1,0.0,99,0.00,CLR,,0.00,WeatherDisplay:10.37,2013-04-09 09:21:00,
2013-04-09 04:26:00,35.2,35.0,29.02,NW,315,0.0,0.0,99,0.00,CLR,,0.00,WeatherDisplay:10.37,2013-04-09 09:26:00,
2013-04-09 04:32:00,35.1,34.8,29.01,NW,315,1.1,0.0,99,0.00,CLR,,0.00,WeatherDisplay:10.37,2013-04-09 09:32:00,
2013-04-09 04:37:00,34.7,34.4,29.01,NW,315,1.1,1.1,99,0.00,CLR,,0.00,WeatherDisplay:10.37,2013-04-09 09:37:00,
2013-04-09 04:42:00,34.5,34.3,29.00,North,0,2.3,2.3,99,0.00,CLR,,0.00,WeatherDisplay:10.37,2013-04-09 09:42:00,
2013-04-09 04:47:00,34.3,34.1,29.00,North,0,2.3,2.3,99,0.00,CLR,,0.00,WeatherDisplay:10.37,2013-04-09 09:47:00,
2013-04-09 04:52:00,34.3,34.1,29.00,North,0,3.5,3.5,99,0.00,CLR,,0.00,WeatherDisplay:10.37,2013-04-09 09:52:00,
2013-04-09 04:57:00,34.3,34.1,29.00,North,0,2.3,2.3,99,0.00,CLR,,0.00,WeatherDisplay:10.37,2013-04-09 09:57:00,
2013-04-09 05:02:00,34.3,34.1,29.00,NW,315,1.1,1.1,99,0.00,CLR,,0.00,WeatherDisplay:10.37,2013-04-09 10:02:00,
2013-04-09 05:07:00,34.3,34.1,29.00,NW,315,1.1,1.1,99,0.00,CLR,,0.00,WeatherDisplay:10.37,2013-04-09 10:07:00,
2013-04-09 05:12:00,34.5,34.3,29.00,North,0,2.3,2.3,99,0.00,CLR,,0.00,WeatherDisplay:10.37,2013-04-09 10:12:00,
2013-04-09 05:17:00,34.5,34.3,28.99,North,0,3.5,3.5,99,0.00,CLR,,0.00,WeatherDisplay:10.37,2013-04-09 10:17:00,
2013-04-09 05:22:00,34.5,34.3,29.00,North,0,3.5,3.5,99,0.00,CLR,,0.00,WeatherDisplay:10.37,2013-04-09 10:22:00,
2013-04-09 05:27:00,34.5,34.3,29.00,North,0,2.3,2.3,99,0.00,CLR,,0.00,WeatherDisplay:10.37,2013-04-09 10:27:00,
2013-04-09 05:32:00,34.5,34.3,29.00,North,0,3.5,3.5,99,0.00,CLR,,0.00,WeatherDisplay:10.37,2013-04-09 10:32:00,
2013-04-09 05:37:00,34.5,34.3,29.00,North,0,3.5,3.5,99,0.00,CLR,,0.00,WeatherDisplay:10.37,2013-04-09 10:37:00,
2013-04-09 05:42:00,34.5,34.3,29.00,North,0,3.5,3.5,99,0.00,CLR,,0.00,WeatherDisplay:10.37,2013-04-09 10:42:00,
2013-04-09 05:47:00,34.5,34.3,29.01,North,0,2.3,2.3,99,0.00,CLR,,0.00,WeatherDisplay:10.37,2013-04-09 10:47:00,
2013-04-09 05:52:00,34.5,34.3,29.00,North,0,3.5,3.5,99,0.00,CLR,,0.00,WeatherDisplay:10.37,2013-04-09 10:52:00,
2013-04-09 05:57:00,34.3,34.1,29.00,North,0,1.1,0.0,99,0.00,CLR,,0.00,WeatherDisplay:10.37,2013-04-09 10:57:00,
2013-04-09 06:02:00,34.3,34.1,29.01,North,0,2.3,2.3,99,0.00,CLR,,0.00,WeatherDisplay:10.37,2013-04-09 11:02:00,
2013-04-09 06:07:00,34.3,34.1,29.01,North,0,2.3,2.3,99,0.00,CLR,,0.00,WeatherDisplay:10.37,2013-04-09 11:07:00,
2013-04-09 06:12:00,34.3,34.1,29.01,North,0,3.5,3.5,99,0.00,CLR,,0.00,WeatherDisplay:10.37,2013-04-09 11:12:00,
2013-04-09 06:17:00,34.3,34.1,29.01,North,0,3.5,3.5,99,0.00,CLR,,0.00,WeatherDisplay:10.37,2013-04-09 11:17:00,
2013-04-09 06:22:00,34.3,34.1,29.01,North,0,3.5,3.5,99,0.00,CLR,,0.00,WeatherDisplay:10.37,2013-04-09 11:22:00,
2013-04-09 06:28:00,34.3,34.1,29.00,North,0,3.5,3.5,99,0.00,CLR,,0.00,WeatherDisplay:10.37,2013-04-09 11:28:00,
2013-04-09 06:33:00,34.3,34.1,29.00,North,0,3.5,3.5,99,0.00,CLR,,0.00,WeatherDisplay:10.37,2013-04-09 11:33:00,
2013-04-09 06:38:00,34.2,33.9,29.01,North,0,3.5,3.5,99,0.00,CLR,,0.00,WeatherDisplay:10.37,2013-04-09 11:38:00,
2013-04-09 06:43:00,34.3,34.1,29.00,North,0,3.5,3.5,99,0.00,CLR,,0.00,WeatherDisplay:10.37,2013-04-09 11:43:00,
2013-04-09 06:48:00,34.3,34.1,29.01,North,0,3.5,3.5,99,0.00,CLR,,0.00,WeatherDisplay:10.37,2013-04-09 11:48:00,
2013-04-09 06:53:00,34.3,34.1,29.01,North,0,2.3,2.3,99,0.00,CLR,,0.00,WeatherDisplay:10.37,2013-04-09 11:53:00,
2013-04-09 06:58:00,34.3,34.1,29.00,North,0,3.5,3.5,99,0.00,CLR,,0.00,WeatherDisplay:10.37,2013-04-09 11:58:00,
2013-04-09 07:03:00,34.3,34.1,29.00,North,0,3.5,3.5,99,0.00,CLR,,0.00,WeatherDisplay:10.37,2013-04-09 12:03:00,
2013-04-09 07:08:00,34.3,34.1,29.01,North,0,3.5,3.5,99,0.00,CLR,,0.00,WeatherDisplay:10.37,2013-04-09 12:08:00,
2013-04-09 07:14:00,34.5,34.3,29.01,North,0,3.5,3.5,99,0.00,CLR,,0.00,WeatherDisplay:10.37,2013-04-09 12:14:00,
2013-04-09 07:19:00,34.5,34.3,29.01,North,0,3.5,3.5,99,0.00,CLR,,0.00,WeatherDisplay:10.37,2013-04-09 12:19:00,
2013-04-09 07:25:00,34.5,34.3,29.01,NE,45,3.5,3.5,99,0.00,CLR,,0.00,WeatherDisplay:10.37,2013-04-09 12:25:00,
2013-04-09 07:30:00,34.5,34.3,29.01,North,11,2.0,6.0,99,0.00,CLR,,0.00,WeatherDisplay:10.37,2013-04-09 12:30:00,
2013-04-09 07:35:00,35.1,34.8,29.01,NE,45,4.6,4.6,99,0.00,CLR,,0.00,WeatherDisplay:10.37,2013-04-09 12:35:00,
2013-04-09 07:40:00,35.4,35.2,29.00,North,0,8.1,8.1,99,0.00,CLR,,0.00,WeatherDisplay:10.37,2013-04-09 12:40:00,
2013-04-09 07:45:00,35.6,35.3,29.00,North,0,9.2,9.2,99,0.00,CLR,,0.00,WeatherDisplay:10.37,2013-04-09 12:45:00,
2013-04-09 07:51:00,35.8,35.3,29.00,NE,45,8.1,8.1,98,0.00,CLR,,0.00,WeatherDisplay:10.37,2013-04-09 12:51:00,
2013-04-09 07:56:00,36.0,34.9,29.00,NE,45,11.5,11.5,96,0.00,CLR,,0.00,WeatherDisplay:10.37,2013-04-09 12:56:00,
2013-04-09 08:01:00,36.1,34.8,29.00,North,0,8.1,8.1,95,0.00,CLR,,0.00,WeatherDisplay:10.37,2013-04-09 13:01:00,
2013-04-09 08:06:00,36.1,34.8,29.00,North,0,6.9,6.9,95,0.00,CLR,,0.00,WeatherDisplay:10.37,2013-04-09 13:06:00,
2013-04-09 08:11:00,36.3,34.8,29.00,NE,45,5.8,5.8,94,0.00,CLR,,0.00,WeatherDisplay:10.37,2013-04-09 13:11:00,
2013-04-09 08:16:00,36.3,34.8,29.00,North,0,9.2,9.2,94,0.00,CLR,,0.00,WeatherDisplay:10.37,2013-04-09 13:16:00,
2013-04-09 08:21:00,36.3,34.5,29.00,North,0,8.1,8.1,93,0.00,CLR,,0.00,WeatherDisplay:10.37,2013-04-09 13:21:00,
2013-04-09 08:27:00,36.3,34.5,29.00,North,0,6.9,6.9,93,0.00,CLR,,0.00,WeatherDisplay:10.37,2013-04-09 13:27:00,
2013-04-09 08:32:00,36.5,34.4,29.00,North,0,5.8,5.8,92,0.00,CLR,,0.00,WeatherDisplay:10.37,2013-04-09 13:32:00,
2013-04-09 08:37:00,36.5,34.4,28.99,North,0,6.9,6.9,92,0.00,CLR,,0.00,WeatherDisplay:10.37,2013-04-09 13:37:00,
2013-04-09 08:42:00,36.5,34.1,28.99,North,0,15.0,15.0,91,0.00,CLR,,0.00,WeatherDisplay:10.37,2013-04-09 13:42:00,
2013-04-09 08:47:00,36.5,34.1,29.00,North,0,5.8,5.8,91,0.00,CLR,,0.00,WeatherDisplay:10.37,2013-04-09 13:47:00,
2013-04-09 08:52:00,36.5,34.1,29.00,North,0,5.8,5.8,91,0.00,CLR,,0.00,WeatherDisplay:10.37,2013-04-09 13:52:00,
2013-04-09 08:57:00,36.5,34.1,28.99,North,0,8.1,8.1,91,0.00,CLR,,0.00,WeatherDisplay:10.37,2013-04-09 13:57:00,
2013-04-09 09:02:00,36.7,34.0,28.98,NE,45,5.8,5.8,90,0.00,CLR,,0.00,WeatherDisplay:10.37,2013-04-09 14:02:00,
2013-04-09 09:07:00,36.7,34.0,28.98,NE,45,5.8,5.8,90,0.00,CLR,,0.00,WeatherDisplay:10.37,2013-04-09 14:07:00,
2013-04-09 09:12:00,37.0,34.1,28.97,NE,45,8.1,8.1,89,0.00,CLR,,0.00,WeatherDisplay:10.37,2013-04-09 14:12:00,
2013-04-09 09:17:00,37.0,34.1,28.98,North,0,5.8,5.8,89,0.00,CLR,,0.00,WeatherDisplay:10.37,2013-04-09 14:17:00,
2013-04-09 09:22:00,37.2,34.6,28.98,NE,45,6.9,6.9,90,0.00,CLR,,0.00,WeatherDisplay:10.37,2013-04-09 14:22:00,
2013-04-09 09:27:00,37.2,34.3,28.98,NE,45,10.4,10.4,89,0.00,CLR,,0.00,WeatherDisplay:10.37,2013-04-09 14:27:00,
2013-04-09 09:32:00,37.4,34.2,28.98,NE,45,9.2,9.2,88,0.00,CLR,,0.00,WeatherDisplay:10.37,2013-04-09 14:32:00,
2013-04-09 09:37:00,37.4,34.2,28.98,North,0,5.8,5.8,88,0.00,CLR,,0.00,WeatherDisplay:10.37,2013-04-09 14:37:00,
2013-04-09 09:42:00,37.4,34.2,28.98,North,0,8.1,8.1,88,0.00,CLR,,0.00,WeatherDisplay:10.37,2013-04-09 14:42:00,
2013-04-09 09:47:00,37.4,34.2,28.98,NE,45,10.4,10.4,88,0.00,CLR,,0.00,WeatherDisplay:10.37,2013-04-09 14:47:00,
2013-04-09 09:52:00,37.4,34.2,28.99,NNW,338,6.9,6.9,88,0.00,CLR,,0.00,WeatherDisplay:10.37,2013-04-09 14:52:00,
2013-04-09 09:57:00,37.2,34.0,28.98,North,0,5.8,5.8,88,0.00,CLR,,0.00,WeatherDisplay:10.37,2013-04-09 14:57:00,
2013-04-09 10:02:00,37.2,34.0,28.99,North,0,3.5,3.5,88,0.00,CLR,,0.00,WeatherDisplay:10.37,2013-04-09 15:02:00,
2013-04-09 10:07:00,37.2,34.0,28.99,North,0,3.5,3.5,88,0.00,CLR,,0.00,WeatherDisplay:10.37,2013-04-09 15:07:00,
2013-04-09 10:12:00,37.2,34.0,28.98,NW,315,5.8,5.8,88,0.00,CLR,,0.00,WeatherDisplay:10.37,2013-04-09 15:12:00,
2013-04-09 10:17:00,37.4,34.2,28.99,North,0,5.8,5.8,88,0.00,CLR,,0.00,WeatherDisplay:10.37,2013-04-09 15:17:00,
2013-04-09 10:22:00,37.4,33.9,28.99,North,0,8.1,8.1,87,0.00,CLR,,0.00,WeatherDisplay:10.37,2013-04-09 15:22:00,
2013-04-09 10:27:00,37.2,34.0,28.98,North,0,5.8,5.8,88,0.00,CLR,,0.00,WeatherDisplay:10.37,2013-04-09 15:27:00,
2013-04-09 10:32:00,37.4,34.2,28.98,NE,45,8.1,8.1,88,0.00,CLR,,0.00,WeatherDisplay:10.37,2013-04-09 15:32:00,
2013-04-09 10:37:00,37.4,34.2,28.98,North,0,6.9,6.9,88,0.00,CLR,,0.00,WeatherDisplay:10.37,2013-04-09 15:37:00,
2013-04-09 10:43:00,37.2,34.0,28.98,North,0,12.7,12.7,88,0.01,RA,,0.01,WeatherDisplay:10.37,2013-04-09 15:43:00,
2013-04-09 10:48:00,37.2,34.3,28.99,NE,45,9.2,9.2,89,0.01,RA,,0.01,WeatherDisplay:10.37,2013-04-09 15:48:00,
2013-04-09 10:53:00,37.2,34.3,28.99,North,0,8.1,8.1,89,0.01,,,0.01,WeatherDisplay:10.37,2013-04-09 15:53:00,
2013-04-09 10:58:00,37.2,34.6,28.99,North,0,5.8,5.8,90,0.01,CLR,,0.01,WeatherDisplay:10.37,2013-04-09 15:58:00,
2013-04-09 11:03:00,37.2,34.6,29.00,NE,45,5.8,5.8,90,0.01,CLR,,0.01,WeatherDisplay:10.37,2013-04-09 16:03:00,
2013-04-09 11:08:00,37.2,34.6,29.01,NE,45,5.8,5.8,90,0.01,CLR,,0.01,WeatherDisplay:10.37,2013-04-09 16:08:00,
2013-04-09 11:13:00,37.0,34.4,29.01,NW,315,4.6,4.6,90,0.02,RA,,0.02,WeatherDisplay:10.37,2013-04-09 16:13:00,
2013-04-09 11:18:00,37.0,34.7,29.02,NE,45,3.5,3.5,91,0.02,RA,,0.02,WeatherDisplay:10.37,2013-04-09 16:18:00,
2013-04-09 11:23:00,37.0,34.7,29.02,NW,315,5.8,5.8,91,0.04,RA,,0.04,WeatherDisplay:10.37,2013-04-09 16:23:00,
2013-04-09 11:28:00,36.9,34.5,29.02,North,0,3.5,3.5,91,0.04,RA,,0.04,WeatherDisplay:10.37,2013-04-09 16:28:00,
2013-04-09 11:33:00,36.9,34.8,29.02,North,0,4.6,4.6,92,0.05,RA,,0.05,WeatherDisplay:10.37,2013-04-09 16:33:00,
2013-04-09 11:38:00,36.9,34.8,29.02,North,0,5.8,5.8,92,0.05,RA,,0.06,WeatherDisplay:10.37,2013-04-09 16:38:00,
2013-04-09 11:43:00,36.9,34.8,29.02,North,0,5.8,5.8,92,0.05,RA,,0.06,WeatherDisplay:10.37,2013-04-09 16:43:00,
2013-04-09 11:48:00,36.9,34.8,29.01,North,0,4.6,4.6,92,0.05,RA,,0.06,WeatherDisplay:10.37,2013-04-09 16:48:00,
2013-04-09 11:53:00,36.9,35.0,29.01,North,0,6.9,6.9,93,0.06,RA,,0.07,WeatherDisplay:10.37,2013-04-09 16:53:00,
2013-04-09 11:58:00,37.0,35.2,29.01,North,0,10.4,10.4,93,0.07,RA,,0.08,WeatherDisplay:10.37,2013-04-09 16:58:00,
2013-04-09 12:03:00,37.0,35.2,29.01,North,0,5.8,5.8,93,0.07,RA,,0.08,WeatherDisplay:10.37,2013-04-09 17:03:00,
2013-04-09 12:08:00,37.4,35.6,29.00,North,0,5.8,5.8,93,0.08,RA,,0.09,WeatherDisplay:10.37,2013-04-09 17:08:00,
2013-04-09 12:13:00,37.4,35.6,29.00,North,0,8.1,8.1,93,0.08,RA,,0.11,WeatherDisplay:10.37,2013-04-09 17:13:00,
2013-04-09 12:18:00,37.4,35.3,29.00,North,0,9.2,9.2,92,0.08,RA,,0.11,WeatherDisplay:10.37,2013-04-09 17:18:00,
2013-04-09 12:24:00,37.4,35.3,29.00,North,0,6.9,6.9,92,0.07,CLR,,0.11,WeatherDisplay:10.37,2013-04-09 17:24:00,
2013-04-09 12:29:00,37.4,35.3,29.00,North,0,6.9,6.9,92,0.08,RA,,0.12,WeatherDisplay:10.37,2013-04-09 17:29:00,
2013-04-09 12:34:00,37.4,35.3,29.00,NE,45,8.1,8.1,92,0.07,RA,,0.12,WeatherDisplay:10.37,2013-04-09 17:34:00,
2013-04-09 12:39:00,37.4,35.3,29.00,North,0,8.1,8.1,92,0.06,,,0.12,WeatherDisplay:10.37,2013-04-09 17:39:00,
2013-04-09 12:45:00,37.4,35.3,29.01,North,0,8.1,8.1,92,0.07,RA,,0.13,WeatherDisplay:10.37,2013-04-09 17:45:00,
2013-04-09 12:50:00,37.4,35.3,29.01,North,0,9.2,9.2,92,0.06,RA,,0.13,WeatherDisplay:10.37,2013-04-09 17:50:00,
2013-04-09 12:55:00,37.3,35.1,29.01,North,0,5.0,13.0,92,0.00,,,0.13,WeatherDisplay:10.37,2013-04-09 17:55:00,
2013-04-09 13:00:00,37.2,35.1,29.01,North,0,5.0,9.0,92,0.00,CLR,,0.13,WeatherDisplay:10.37,2013-04-09 18:00:00,
2013-04-09 13:05:00,37.2,35.1,29.01,North,0,5.8,5.8,92,0.05,CLR,,0.13,WeatherDisplay:10.37,2013-04-09 18:05:00,
2013-04-09 13:10:00,37.4,35.3,29.01,North,356,5.0,8.0,92,0.00,RA,,0.14,WeatherDisplay:10.37,2013-04-09 18:10:00,
2013-04-09 13:15:00,37.2,35.1,29.01,WNW,292,8.1,8.1,92,0.05,RA,,0.15,WeatherDisplay:10.37,2013-04-09 18:15:00,
2013-04-09 13:20:00,37.2,35.1,29.01,North,0,6.9,6.9,92,0.05,RA,,0.15,WeatherDisplay:10.37,2013-04-09 18:20:00,
2013-04-09 13:25:00,37.4,35.3,29.01,North,0,8.1,8.1,92,0.05,CLR,,0.15,WeatherDisplay:10.37,2013-04-09 18:25:00,
2013-04-09 13:30:00,37.4,35.3,29.01,North,0,8.1,8.1,92,0.05,RA,,0.17,WeatherDisplay:10.37,2013-04-09 18:30:00,
2013-04-09 13:35:00,37.6,35.5,29.01,North,0,8.1,8.1,92,0.05,RA,,0.17,WeatherDisplay:10.37,2013-04-09 18:35:00,
2013-04-09 13:40:00,37.6,35.2,29.00,North,0,8.1,8.1,91,0.05,CLR,,0.17,WeatherDisplay:10.37,2013-04-09 18:40:00,
2013-04-09 13:45:00,37.9,35.5,29.00,North,0,8.1,8.1,91,0.05,RA,,0.18,WeatherDisplay:10.37,2013-04-09 18:45:00,
2013-04-09 13:50:00,38.1,35.4,29.01,North,0,8.1,8.1,90,0.05,RA,,0.18,WeatherDisplay:10.37,2013-04-09 18:50:00,
2013-04-09 13:55:00,38.3,35.6,29.01,North,0,8.1,8.1,90,0.05,,,0.18,WeatherDisplay:10.37,2013-04-09 18:55:00,
2013-04-09 14:00:00,38.3,35.6,29.01,North,0,6.9,6.9,90,0.05,CLR,,0.18,WeatherDisplay:10.37,2013-04-09 19:00:00,
2013-04-09 14:05:00,38.3,35.6,29.02,North,0,5.8,5.8,90,0.05,CLR,,0.18,WeatherDisplay:10.37,2013-04-09 19:05:00,
2013-04-09 14:11:00,38.3,35.3,29.01,North,0,11.5,11.5,89,0.04,CLR,,0.19,WeatherDisplay:10.37,2013-04-09 19:11:00,
2013-04-09 14:16:00,38.5,35.5,29.01,North,0,11.5,11.5,89,0.04,RA,,0.19,WeatherDisplay:10.37,2013-04-09 19:16:00,
2013-04-09 14:21:00,38.5,35.2,29.01,North,0,8.1,8.1,88,0.04,RA,,0.19,WeatherDisplay:10.37,2013-04-09 19:21:00,
2013-04-09 14:26:00,38.7,35.4,29.01,North,0,8.1,8.1,88,0.04,CLR,,0.19,WeatherDisplay:10.37,2013-04-09 19:26:00,
2013-04-09 14:31:00,39.0,35.5,29.01,North,0,6.9,6.9,87,0.02,CLR,,0.19,WeatherDisplay:10.37,2013-04-09 19:31:00,
2013-04-09 14:36:00,39.6,35.7,29.00,NE,45,10.4,10.4,86,0.02,CLR,,0.20,WeatherDisplay:10.37,2013-04-09 19:36:00,
2013-04-09 14:41:00,40.5,36.3,29.01,NE,45,6.9,6.9,85,0.04,RA,,0.20,WeatherDisplay:10.37,2013-04-09 19:41:00,
2013-04-09 14:46:00,40.8,36.4,29.02,North,0,12.7,12.7,84,0.02,RA,,0.20,WeatherDisplay:10.37,2013-04-09 19:46:00,
2013-04-09 14:51:00,40.6,36.2,29.02,North,0,6.9,6.9,84,0.02,CLR,,0.20,WeatherDisplay:10.37,2013-04-09 19:51:00,
2013-04-09 14:56:00,40.3,35.8,29.01,North,0,8.1,8.1,84,0.02,CLR,,0.20,WeatherDisplay:10.37,2013-04-09 19:56:00,
2013-04-09 15:01:00,40.3,35.5,29.01,North,0,10.4,10.4,83,0.02,CLR,,0.20,WeatherDisplay:10.37,2013-04-09 20:01:00,
2013-04-09 15:06:00,40.8,35.7,29.00,NE,45,10.4,10.4,82,0.02,CLR,,0.20,WeatherDisplay:10.37,2013-04-09 20:06:00,
2013-04-09 15:12:00,41.2,35.8,29.01,NE,45,10.4,10.4,81,0.01,CLR,,0.20,WeatherDisplay:10.37,2013-04-09 20:12:00,
2013-04-09 15:17:00,41.2,35.5,29.01,NE,45,19.6,19.6,80,0.01,CLR,,0.20,WeatherDisplay:10.37,2013-04-09 20:17:00,
2013-04-09 15:22:00,41.2,35.5,29.01,NE,45,19.6,19.6,80,0.01,CLR,,0.20,WeatherDisplay:10.37,2013-04-09 20:22:00,
2013-04-09 15:27:00,41.0,35.0,29.01,North,0,17.3,17.3,79,0.01,CLR,,0.20,WeatherDisplay:10.37,2013-04-09 20:27:00,
2013-04-09 15:32:00,41.0,34.7,29.00,North,0,12.7,12.7,78,0.01,CLR,,0.20,WeatherDisplay:10.37,2013-04-09 20:32:00,
2013-04-09 15:37:00,41.2,34.8,29.01,North,0,6.9,6.9,78,0.00,CLR,,0.20,WeatherDisplay:10.37,2013-04-09 20:37:00,
2013-04-09 15:43:00,41.2,34.5,29.00,NE,45,17.3,17.3,77,0.00,CLR,,0.20,WeatherDisplay:10.37,2013-04-09 20:43:00,
2013-04-09 15:48:00,41.0,34.0,29.00,NW,315,11.5,11.5,76,0.00,CLR,,0.20,WeatherDisplay:10.37,2013-04-09 20:48:00,
2013-04-09 15:52:00,41.0,33.7,29.00,NE,45,16.1,16.1,75,0.00,CLR,,0.20,WeatherDisplay:10.37,2013-04-09 20:52:00,
2013-04-09 15:57:00,41.2,33.9,29.00,North,0,15.0,15.0,75,0.00,CLR,,0.20,WeatherDisplay:10.37,2013-04-09 20:57:00,
2013-04-09 16:02:00,41.4,34.0,29.00,NE,45,9.2,9.2,75,0.00,CLR,,0.20,WeatherDisplay:10.37,2013-04-09 21:02:00,
2013-04-09 16:08:00,41.5,33.9,29.00,NE,45,9.2,9.2,74,0.00,CLR,,0.20,WeatherDisplay:10.37,2013-04-09 21:08:00,
2013-04-09 16:13:00,41.5,33.5,29.00,North,0,11.5,11.5,73,0.00,CLR,,0.20,WeatherDisplay:10.37,2013-04-09 21:13:00,
2013-04-09 16:18:00,41.5,33.5,29.00,NE,45,8.1,8.3,73,0.00,CLR,,0.20,WeatherDisplay:10.37,2013-04-09 21:18:00,
2013-04-09 16:23:00,41.4,33.4,29.00,North,0,15.0,15.0,73,0.00,CLR,,0.20,WeatherDisplay:10.37,2013-04-09 21:23:00,
2013-04-09 16:28:00,41.4,33.4,29.00,North,0,10.4,10.4,73,0.00,CLR,,0.20,WeatherDisplay:10.37,2013-04-09 21:28:00,
2013-04-09 16:33:00,41.4,33.0,29.00,North,0,12.7,12.7,72,0.00,CLR,,0.20,WeatherDisplay:10.37,2013-04-09 21:33:00,
2013-04-09 16:38:00,41.4,33.4,29.00,SE,135,9.2,9.2,73,0.00,CLR,,0.20,WeatherDisplay:10.37,2013-04-09 21:38:00,
2013-04-09 16:43:00,41.4,33.0,29.01,NNW,338,11.5,11.5,72,0.00,CLR,,0.20,WeatherDisplay:10.37,2013-04-09 21:43:00,
2013-04-09 16:48:00,41.2,33.2,29.00,North,0,6.9,6.9,73,0.00,CLR,,0.20,WeatherDisplay:10.37,2013-04-09 21:48:00,
2013-04-09 16:56:00,41.2,33.2,29.00,NE,45,9.2,9.2,73,0.00,CLR,,0.20,WeatherDisplay:10.37,2013-04-09 21:56:00,
2013-04-09 17:01:00,41.2,33.2,29.01,North,0,4.6,4.6,73,0.00,CLR,,0.20,WeatherDisplay:10.37,2013-04-09 22:01:00,
2013-04-09 17:07:00,41.2,33.2,29.01,North,0,4.6,4.6,73,0.00,CLR,,0.20,WeatherDisplay:10.37,2013-04-09 22:07:00,
2013-04-09 17:12:00,41.0,32.7,29.02,NE,45,8.1,8.1,72,0.00,CLR,,0.20,WeatherDisplay:10.37,2013-04-09 22:12:00,
2013-04-09 17:18:00,41.0,33.0,29.02,North,0,9.2,9.2,73,0.00,CLR,,0.20,WeatherDisplay:10.37,2013-04-09 22:18:00,
2013-04-09 17:23:00,40.8,32.8,29.02,North,0,5.8,5.8,73,0.00,CLR,,0.20,WeatherDisplay:10.37,2013-04-09 22:23:00,
2013-04-09 17:28:00,40.5,32.5,29.02,North,0,8.1,8.1,73,0.00,CLR,,0.20,WeatherDisplay:10.37,2013-04-09 22:28:00,
2013-04-09 17:33:00,40.5,32.5,29.03,North,0,6.9,6.9,73,0.00,CLR,,0.20,WeatherDisplay:10.37,2013-04-09 22:33:00,
2013-04-09 17:38:00,40.5,32.5,29.03,NNW,338,8.1,8.1,73,0.00,CLR,,0.20,WeatherDisplay:10.37,2013-04-09 22:38:00,
2013-04-09 17:43:00,40.5,32.5,29.04,North,0,5.8,5.8,73,0.00,CLR,,0.20,WeatherDisplay:10.37,2013-04-09 22:43:00,
2013-04-09 17:48:00,40.1,32.1,29.04,NE,45,8.1,8.1,73,0.00,CLR,,0.20,WeatherDisplay:10.37,2013-04-09 22:48:00,
2013-04-09 17:53:00,40.3,32.0,29.04,NE,45,8.1,8.1,72,0.00,CLR,,0.20,WeatherDisplay:10.37,2013-04-09 22:53:00,
2013-04-09 17:58:00,40.5,31.8,29.05,North,0,10.4,10.4,71,0.00,CLR,,0.20,WeatherDisplay:10.37,2013-04-09 22:58:00,
2013-04-09 18:03:00,40.3,31.3,29.06,North,0,9.2,9.2,70,0.00,CLR,,0.20,WeatherDisplay:10.37,2013-04-09 23:03:00,
2013-04-09 18:08:00,39.9,31.3,29.06,North,0,9.2,9.2,71,0.00,CLR,,0.20,WeatherDisplay:10.37,2013-04-09 23:08:00,
2013-04-09 18:13:00,39.7,31.4,29.05,North,0,9.2,9.2,72,0.00,CLR,,0.20,WeatherDisplay:10.37,2013-04-09 23:13:00,
2013-04-09 18:18:00,39.7,31.1,29.04,NNW,338,12.7,12.7,71,0.00,CLR,,0.20,WeatherDisplay:10.37,2013-04-09 23:18:00,
2013-04-09 18:23:00,39.9,30.9,29.04,NE,45,11.5,11.5,70,0.00,CLR,,0.20,WeatherDisplay:10.37,2013-04-09 23:23:00,
2013-04-09 18:28:00,39.6,30.9,29.05,North,0,6.9,6.9,71,0.00,CLR,,0.20,WeatherDisplay:10.37,2013-04-09 23:28:00,
2013-04-09 18:33:00,39.6,30.9,29.05,NW,315,6.9,6.9,71,0.00,CLR,,0.20,WeatherDisplay:10.37,2013-04-09 23:33:00,
2013-04-09 18:38:00,39.6,30.6,29.05,North,0,8.1,8.1,70,0.00,CLR,,0.20,WeatherDisplay:10.37,2013-04-09 23:38:00,
2013-04-09 18:43:00,39.4,30.8,29.05,North,0,5.8,5.8,71,0.00,CLR,,0.20,WeatherDisplay:10.37,2013-04-09 23:43:00,
2013-04-09 18:48:00,39.4,30.4,29.05,North,0,8.1,8.1,70,0.00,CLR,,0.20,WeatherDisplay:10.37,2013-04-09 23:48:00,
2013-04-09 18:53:00,39.2,29.9,29.06,North,0,6.9,6.9,69,0.00,CLR,,0.20,WeatherDisplay:10.37,2013-04-09 23:53:00,
2013-04-09 18:58:00,39.2,29.9,29.06,North,0,8.3,8.3,69,0.00,CLR,,0.20,WeatherDisplay:10.37,2013-04-09 23:58:00,
2013-04-09 19:03:00,39.2,29.9,29.07,East,90,6.9,6.9,69,0.00,CLR,,0.20,WeatherDisplay:10.37,2013-04-10 00:03:00,
2013-04-09 19:08:00,39.2,29.9,29.07,North,0,6.9,6.9,69,0.00,CLR,,0.20,WeatherDisplay:10.37,2013-04-10 00:08:00,
2013-04-09 19:14:00,39.0,29.3,29.07,North,0,9.2,9.2,68,0.00,CLR,,0.20,WeatherDisplay:10.37,2013-04-10 00:14:00,
2013-04-09 19:19:00,38.7,29.4,29.06,North,0,4.6,4.6,69,0.00,CLR,,0.20,WeatherDisplay:10.37,2013-04-10 00:19:00,
2013-04-09 19:24:00,38.5,29.2,29.07,North,0,6.9,6.9,69,0.00,CLR,,0.20,WeatherDisplay:10.37,2013-04-10 00:24:00,
2013-04-09 19:29:00,38.3,29.0,29.06,North,0,8.1,8.1,69,0.00,CLR,,0.20,WeatherDisplay:10.37,2013-04-10 00:29:00,
2013-04-09 19:34:00,38.3,28.7,29.07,North,0,13.8,13.8,68,0.00,CLR,,0.20,WeatherDisplay:10.37,2013-04-10 00:34:00,
2013-04-09 19:39:00,38.5,28.8,29.07,NW,315,12.7,12.7,68,0.00,CLR,,0.20,WeatherDisplay:10.37,2013-04-10 00:39:00,
2013-04-09 19:44:00,38.3,28.7,29.07,NE,45,10.4,10.4,68,0.00,CLR,,0.20,WeatherDisplay:10.37,2013-04-10 00:44:00,
2013-04-09 19:49:00,38.1,28.1,29.07,North,0,9.2,9.2,67,0.00,CLR,,0.20,WeatherDisplay:10.37,2013-04-10 00:49:00,
2013-04-09 19:54:00,38.1,28.5,29.07,NE,45,8.1,8.1,68,0.00,CLR,,0.20,WeatherDisplay:10.37,2013-04-10 00:54:00,
2013-04-09 20:00:00,37.9,28.7,29.07,North,0,5.8,5.8,69,0.00,CLR,,0.20,WeatherDisplay:10.37,2013-04-10 01:00:00,
2013-04-09 20:05:00,37.8,28.5,29.06,North,0,5.8,5.8,69,0.00,CLR,,0.20,WeatherDisplay:10.37,2013-04-10 01:05:00,
2013-04-09 20:10:00,37.6,28.3,29.06,North,0,10.4,10.4,69,0.00,CLR,,0.20,WeatherDisplay:10.37,2013-04-10 01:10:00,
2013-04-09 20:15:00,37.6,28.0,29.05,North,0,11.5,11.5,68,0.00,CLR,,0.20,WeatherDisplay:10.37,2013-04-10 01:15:00,
2013-04-09 20:22:00,37.6,27.6,29.05,NE,45,10.4,10.4,67,0.00,CLR,,0.20,WeatherDisplay:10.37,2013-04-10 01:22:00,
2013-04-09 20:27:00,37.6,27.6,29.04,NE,45,10.4,10.4,67,0.00,CLR,,0.20,WeatherDisplay:10.37,2013-04-10 01:27:00,
2013-04-09 20:32:00,37.4,27.8,29.04,NE,45,6.9,6.9,68,0.00,CLR,,0.20,WeatherDisplay:10.37,2013-04-10 01:32:00,
2013-04-09 20:37:00,37.4,27.8,29.04,NE,45,6.9,6.9,68,0.00,CLR,,0.20,WeatherDisplay:10.37,2013-04-10 01:37:00,
2013-04-09 20:42:00,37.4,26.7,29.05,NE,45,10.4,10.4,65,0.00,CLR,,0.20,WeatherDisplay:10.37,2013-04-10 01:42:00,
2013-04-09 20:47:00,37.4,26.3,29.04,North,0,10.4,10.4,64,0.00,CLR,,0.20,WeatherDisplay:10.37,2013-04-10 01:47:00,
2013-04-09 20:52:00,37.2,26.5,29.04,NE,45,8.1,8.1,65,0.00,CLR,,0.20,WeatherDisplay:10.37,2013-04-10 01:52:00,
2013-04-09 20:57:00,37.2,25.8,29.03,North,0,10.4,10.4,63,0.00,CLR,,0.20,WeatherDisplay:10.37,2013-04-10 01:57:00,
2013-04-09 21:02:00,37.2,26.2,29.03,North,0,6.9,6.9,64,0.00,CLR,,0.20,WeatherDisplay:10.37,2013-04-10 02:02:00,
2013-04-09 21:08:00,37.2,26.2,29.03,North,0,6.9,6.9,64,0.00,CLR,,0.20,WeatherDisplay:10.37,2013-04-10 02:08:00,
2013-04-09 21:13:00,37.2,25.4,29.04,North,0,10.4,10.4,62,0.00,CLR,,0.20,WeatherDisplay:10.37,2013-04-10 02:13:00,
2013-04-09 21:18:00,37.0,25.6,29.04,NE,45,6.9,6.9,63,0.00,CLR,,0.20,WeatherDisplay:10.37,2013-04-10 02:18:00,
2013-04-09 21:23:00,36.9,26.2,29.04,North,0,6.9,6.9,65,0.00,CLR,,0.20,WeatherDisplay:10.37,2013-04-10 02:23:00,
2013-04-09 21:28:00,36.7,25.6,29.03,North,0,12.7,12.7,64,0.00,CLR,,0.20,WeatherDisplay:10.37,2013-04-10 02:28:00,
2013-04-09 21:33:00,36.9,25.4,29.03,North,0,8.1,8.1,63,0.00,CLR,,0.20,WeatherDisplay:10.37,2013-04-10 02:33:00,
2013-04-09 21:38:00,36.7,24.5,29.01,NE,45,9.2,9.2,61,0.00,CLR,,0.20,WeatherDisplay:10.37,2013-04-10 02:38:00,
2013-04-09 21:43:00,36.7,24.5,29.02,NE,45,8.1,8.1,61,0.00,CLR,,0.20,WeatherDisplay:10.37,2013-04-10 02:43:00,
2013-04-09 21:48:00,36.9,23.9,29.03,NE,45,10.4,10.4,59,0.00,CLR,,0.20,WeatherDisplay:10.37,2013-04-10 02:48:00,
2013-04-09 21:53:00,36.7,23.7,29.03,NE,45,5.8,5.8,59,0.00,CLR,,0.20,WeatherDisplay:10.37,2013-04-10 02:53:00,
2013-04-09 21:58:00,36.5,23.5,29.03,NE,45,10.4,10.4,59,0.00,CLR,,0.20,WeatherDisplay:10.37,2013-04-10 02:58:00,
2013-04-09 22:03:00,36.5,23.5,29.03,North,0,5.8,5.8,59,0.00,CLR,,0.20,WeatherDisplay:10.37,2013-04-10 03:03:00,
2013-04-09 22:08:00,36.5,23.1,29.04,North,0,6.9,6.9,58,0.00,CLR,,0.20,WeatherDisplay:10.37,2013-04-10 03:08:00,
2013-04-09 22:13:00,36.3,23.8,29.05,ENE,68,8.1,8.1,60,0.00,CLR,,0.20,WeatherDisplay:10.37,2013-04-10 03:13:00,
2013-04-09 22:18:00,36.1,24.4,29.05,North,0,3.5,3.5,62,0.00,CLR,,0.20,WeatherDisplay:10.37,2013-04-10 03:18:00,
2013-04-09 22:23:00,35.8,24.8,29.04,NNE,22,5.8,5.8,64,0.01,RA,,0.21,WeatherDisplay:10.37,2013-04-10 03:23:00,
2013-04-09 22:28:00,35.2,25.4,29.03,East,90,4.6,4.6,67,0.01,RA,,0.21,WeatherDisplay:10.37,2013-04-10 03:28:00,
2013-04-09 22:33:00,34.7,25.9,29.03,NE,45,4.6,4.6,70,0.01,,,0.21,WeatherDisplay:10.37,2013-04-10 03:33:00,
2013-04-09 22:38:00,34.5,26.4,29.04,North,0,3.5,3.5,72,0.02,RA,,0.22,WeatherDisplay:10.37,2013-04-10 03:38:00,
2013-04-09 22:43:00,34.3,26.6,29.05,North,0,4.6,4.6,73,0.02,RA,,0.22,WeatherDisplay:10.37,2013-04-10 03:43:00,
2013-04-09 22:48:00,34.2,26.4,29.04,North,0,5.8,5.8,73,0.02,CLR,,0.22,WeatherDisplay:10.37,2013-04-10 03:48:00,
2013-04-09 22:53:00,34.0,26.6,29.04,North,0,4.6,4.6,74,0.02,CLR,,0.22,WeatherDisplay:10.37,2013-04-10 03:53:00,
2013-04-09 22:58:00,34.0,26.9,29.04,NE,45,3.5,3.5,75,0.04,RA,,0.24,WeatherDisplay:10.37,2013-04-10 03:58:00,
2013-04-09 23:00:00,33.8,26.7,29.04,North,11,2.0,6.0,75,0.00,RA,,0.24,WeatherDisplay:10.37,2013-04-10 04:00:00,
2013-04-09 23:01:00,33.8,26.7,29.04,North,0,3.5,3.5,75,0.04,RA,,0.24,WeatherDisplay:10.37,2013-04-10 04:01:00,
2013-04-09 23:06:00,33.8,26.7,29.04,North,0,3.5,3.5,75,0.04,RA,,0.24,WeatherDisplay:10.37,2013-04-10 04:06:00,
2013-04-09 23:11:00,33.6,27.2,29.05,NW,315,4.6,0.0,77,0.04,CLR,,0.24,WeatherDisplay:10.37,2013-04-10 04:11:00,
2013-04-09 23:16:00,33.6,26.9,29.05,NW,315,0.0,0.0,76,0.04,CLR,,0.24,WeatherDisplay:10.37,2013-04-10 04:16:00,
2013-04-09 23:21:00,33.4,27.3,29.06,NW,315,0.0,0.0,78,0.04,CLR,,0.24,WeatherDisplay:10.37,2013-04-10 04:21:00,
2013-04-09 23:26:00,33.6,27.2,29.07,NW,315,0.0,0.0,77,0.02,CLR,,0.24,WeatherDisplay:10.37,2013-04-10 04:26:00,
2013-04-09 23:31:00,33.4,27.3,29.07,NW,315,0.0,0.0,78,0.02,CLR,,0.24,WeatherDisplay:10.37,2013-04-10 04:31:00,
2013-04-09 23:36:00,33.3,27.8,29.08,NW,315,0.0,0.0,80,0.01,CLR,,0.24,WeatherDisplay:10.37,2013-04-10 04:36:00,
2013-04-09 23:41:00,33.1,28.2,29.09,NW,315,0.0,0.0,82,0.01,CLR,,0.24,WeatherDisplay:10.37,2013-04-10 04:41:00,
2013-04-09 23:46:00,33.1,28.2,29.10,NW,315,0.0,0.0,82,0.01,CLR,,0.24,WeatherDisplay:10.37,2013-04-10 04:46:00,
2013-04-09 23:51:00,32.9,28.3,29.10,NW,315,0.0,0.0,83,0.01,CLR,,0.24,WeatherDisplay:10.37,2013-04-10 04:51:00,
2013-04-09 23:57:00,32.9,28.6,29.11,NW,315,0.0,0.0,84,0.00,CLR,,0.24,WeatherDisplay:10.37,2013-04-10 04:57:00,